Time;durP1;ratioP1;P1;durP2;ratioP2;P2;SDS_P1;SDS_P2;PMS_P1;PMS_P2;Temp;Humidity;BMP_temperature;BMP_pressure;BME280_temperature;BME280_humidity;BME280_pressure;Samples;Min_cycle;Max_cycle;Signal;HPM_P1;HPM_P2
2023/12/31 00:01:17;;;;;;;54.58;39.83;;;;;;;12.32;100.00;101897.19;143721;616;47006;-72
2023/12/31 00:03:43;;;;;;;68.55;54.85;;;;;;;12.32;100.00;101902.56;143722;580;47002;-72
2023/12/31 00:06:10;;;;;;;60.22;44.47;;;;;;;12.31;100.00;101903.59;143725;619;46010;-72
2023/12/31 00:08:36;;;;;;;52.35;38.97;;;;;;;12.31;100.00;101900.91;143722;613;47004;-72
2023/12/31 00:11:03;;;;;;;49.00;37.40;;;;;;;12.33;100.00;101893.47;143723;636;47006;-72
2023/12/31 00:13:30;;;;;;;47.53;36.33;;;;;;;12.37;100.00;101901.00;143723;576;47002;-73
2023/12/31 00:15:56;;;;;;;48.85;37.10;;;;;;;12.40;100.00;101897.09;143722;656;47008;-72
2023/12/31 00:18:22;;;;;;;45.33;35.60;;;;;;;12.39;100.00;101898.97;143723;586;47004;-72
2023/12/31 00:20:48;;;;;;;50.10;38.85;;;;;;;12.34;100.00;101903.25;143721;643;47006;-72
2023/12/31 00:23:15;;;;;;;50.72;34.33;;;;;;;12.31;100.00;101909.81;143724;637;47002;-72
2023/12/31 00:25:41;;;;;;;45.92;33.28;;;;;;;12.31;100.00;101904.41;143722;599;47013;-72
2023/12/31 00:28:07;;;;;;;42.40;31.83;;;;;;;12.30;100.00;101907.31;143722;639;47006;-72
2023/12/31 00:30:35;;;;;;;43.08;32.10;;;;;;;12.38;100.00;101902.69;143724;623;46008;-73
2023/12/31 00:33:01;;;;;;;40.88;33.55;;;;;;;12.40;100.00;101906.03;143725;610;47004;-72
2023/12/31 00:35:27;;;;;;;43.38;32.25;;;;;;;12.40;100.00;101906.03;143725;574;46012;-72
2023/12/31 00:37:54;;;;;;;44.65;36.08;;;;;;;12.39;100.00;101901.66;143723;586;47006;-72
2023/12/31 00:40:20;;;;;;;45.63;38.15;;;;;;;12.37;100.00;101911.78;143723;560;47009;-72
2023/12/31 00:42:46;;;;;;;47.03;37.33;;;;;;;12.34;100.00;101909.44;143722;707;47012;-72
2023/12/31 00:45:13;;;;;;;49.65;38.40;;;;;;;12.25;100.00;101907.84;143723;586;47012;-73
2023/12/31 00:47:39;;;;;;;49.50;37.67;;;;;;;12.25;100.00;101913.25;143725;612;46010;-72
2023/12/31 00:50:07;;;;;;;51.17;39.28;;;;;;;12.25;100.00;101915.94;143724;568;46024;-72
2023/12/31 00:52:34;;;;;;;49.40;39.20;;;;;;;12.27;100.00;101911.19;143724;665;47004;-71
2023/12/31 00:55:01;;;;;;;54.85;43.05;;;;;;;12.30;100.00;101901.91;143723;653;47011;-71
2023/12/31 00:57:29;;;;;;;58.87;43.13;;;;;;;12.32;100.00;101902.56;143722;635;47006;-72
2023/12/31 00:59:56;;;;;;;57.40;44.55;;;;;;;12.35;100.00;101904.91;143721;587;46008;-71
2023/12/31 01:02:22;;;;;;;60.92;44.75;;;;;;;12.36;100.00;101895.78;143722;596;47006;-69
2023/12/31 01:04:50;;;;;;;58.63;44.58;;;;;;;12.36;100.00;101902.03;143723;668;46027;-71
2023/12/31 01:07:17;;;;;;;60.25;46.45;;;;;;;12.41;100.00;101902.31;143727;642;46006;-70
2023/12/31 01:09:43;;;;;;;58.35;44.20;;;;;;;12.42;100.00;101895.06;143728;608;46008;-72
2023/12/31 01:12:09;;;;;;;60.53;43.08;;;;;;;12.42;100.00;101900.47;143724;627;47006;-72
2023/12/31 01:14:36;;;;;;;55.42;42.50;;;;;;;12.41;100.00;101896.94;143724;603;47008;-73
2023/12/31 01:17:02;;;;;;;57.65;43.42;;;;;;;12.43;100.00;101896.75;143723;629;47010;-73
2023/12/31 01:19:29;;;;;;;57.83;42.10;;;;;;;12.45;100.00;101900.09;143723;638;47004;-73
2023/12/31 01:21:55;;;;;;;55.12;42.80;;;;;;;12.34;100.00;101895.16;143723;591;47004;-72
2023/12/31 01:24:22;;;;;;;55.72;41.55;;;;;;;12.31;100.00;101892.81;143726;628;46010;-72
2023/12/31 01:26:48;;;;;;;67.57;47.92;;;;;;;12.29;100.00;101890.28;143722;601;47004;-72
2023/12/31 01:29:14;;;;;;;58.58;47.15;;;;;;;12.28;100.00;101892.16;143721;675;47006;-72
2023/12/31 01:31:41;;;;;;;59.15;44.80;;;;;;;12.30;100.00;101893.84;143724;660;47002;-72
2023/12/31 01:34:07;;;;;;;58.42;45.55;;;;;;;12.30;100.00;101894.66;143724;635;47008;-72
2023/12/31 01:36:34;;;;;;;70.80;53.92;;;;;;;12.18;100.00;101885.34;143723;669;47004;-72
2023/12/31 01:39:00;;;;;;;67.53;49.95;;;;;;;12.18;100.00;101888.03;143725;585;46007;-72
2023/12/31 01:41:28;;;;;;;68.93;47.33;;;;;;;12.17;100.00;101883.66;143725;606;47004;-72
2023/12/31 01:44:02;;;;;;;62.33;44.47;;;;;;;12.16;100.00;101890.06;143725;568;46010;-72
2023/12/31 01:46:30;;;;;;;54.33;40.43;;;;;;;12.16;100.00;101892.75;143724;603;47004;-72
2023/12/31 01:48:57;;;;;;;58.70;40.30;;;;;;;12.17;100.00;101886.34;143724;575;46006;-72
2023/12/31 01:51:25;;;;;;;57.88;39.45;;;;;;;12.16;100.00;101882.00;143727;704;47004;-72
2023/12/31 01:53:52;;;;;;;50.55;35.30;;;;;;;12.16;100.00;101887.37;143724;577;47010;-72
2023/12/31 01:56:20;;;;;;;51.08;36.17;;;;;;;12.13;100.00;101893.97;143722;567;49002;-72
2023/12/31 01:58:48;;;;;;;53.40;37.33;;;;;;;12.15;100.00;101889.25;143724;590;47006;-72
2023/12/31 04:01:45;;;;;;;38.88;25.65;;;;;;;11.45;100.00;101916.03;143736;790;47006;-72
2023/12/31 04:04:14;;;;;;;29.30;23.98;;;;;;;11.42;100.00;101924.44;143730;596;46918;-73
2023/12/31 04:06:42;;;;;;;34.13;24.12;;;;;;;11.41;100.00;101930.00;143728;606;47004;-72
2023/12/31 04:09:11;;;;;;;35.10;24.65;;;;;;;11.37;100.00;101934.91;143732;607;47006;-72
2023/12/31 04:11:37;;;;;;;33.25;23.17;;;;;;;11.38;100.00;101933.88;143730;667;47002;-72
2023/12/31 04:14:03;;;;;;;30.67;23.40;;;;;;;11.37;100.00;101940.28;143735;593;46010;-72
2023/12/31 04:16:30;;;;;;;34.13;24.95;;;;;;;11.40;100.00;101944.47;143731;581;47004;-72
2023/12/31 04:18:56;;;;;;;30.25;22.70;;;;;;;11.36;100.00;101935.91;143731;559;47006;-72
2023/12/31 04:21:23;;;;;;;31.83;22.98;;;;;;;11.36;100.00;101944.81;143731;583;47002;-72
2023/12/31 04:23:49;;;;;;;31.83;22.70;;;;;;;11.34;100.00;101941.44;143731;572;47004;-72
2023/12/31 04:26:15;;;;;;;30.52;23.25;;;;;;;11.36;100.00;101944.81;143731;625;47004;-72
2023/12/31 04:28:42;;;;;;;31.87;24.17;;;;;;;11.32;100.00;101942.66;143731;615;47006;-73
2023/12/31 04:31:08;;;;;;;29.80;24.55;;;;;;;11.31;100.00;101951.72;143732;609;47002;-73
2023/12/31 04:33:35;;;;;;;33.22;24.60;;;;;;;11.30;100.00;101944.66;143732;582;47010;-72
2023/12/31 04:36:05;;;;;;;30.90;23.62;;;;;;;11.29;100.00;101946.53;143734;619;46011;-72
2023/12/31 04:38:32;;;;;;;30.40;22.98;;;;;;;11.31;100.00;101938.28;143731;665;46006;-73
2023/12/31 04:40:58;;;;;;;32.22;24.83;;;;;;;11.25;100.00;101939.81;143733;633;47002;-73
2023/12/31 04:43:25;;;;;;;34.63;24.50;;;;;;;11.22;100.00;101935.59;143731;612;47010;-74
2023/12/31 04:45:51;;;;;;;33.83;24.08;;;;;;;11.21;100.00;101933.91;143729;624;47004;-73
2023/12/31 04:48:17;;;;;;;32.22;24.63;;;;;;;11.20;100.00;101939.47;143731;617;46006;-73
2023/12/31 04:50:44;;;;;;;38.30;26.40;;;;;;;11.19;100.00;101944.03;143732;578;47004;-72
2023/12/31 04:53:10;;;;;;;39.92;25.92;;;;;;;11.19;100.00;101937.81;143732;727;47008;-72
2023/12/31 04:55:37;;;;;;;34.70;25.62;;;;;;;11.21;100.00;101935.78;143731;626;47004;-73
2023/12/31 04:58:03;;;;;;;37.58;27.45;;;;;;;11.25;100.00;101949.72;143732;621;47000;-73
2023/12/31 05:00:30;;;;;;;39.20;27.37;;;;;;;11.22;100.00;101945.53;143733;610;47002;-73
2023/12/31 05:02:56;;;;;;;37.70;27.92;;;;;;;11.22;100.00;101946.34;143728;599;46012;-72
2023/12/31 05:05:22;;;;;;;30.62;25.23;;;;;;;11.20;100.00;101934.97;143727;588;46006;-70
2023/12/31 05:07:49;;;;;;;36.00;24.90;;;;;;;11.19;100.00;101935.97;143723;664;47008;-73
2023/12/31 05:10:15;;;;;;;39.55;28.05;;;;;;;11.22;100.00;101940.16;143724;690;47006;-73
2023/12/31 05:12:42;;;;;;;45.03;29.63;;;;;;;11.20;100.00;101940.34;143721;663;47018;-73
2023/12/31 05:15:08;;;;;;;42.45;28.90;;;;;;;11.21;100.00;101942.00;143723;595;47006;-73
2023/12/31 05:17:34;;;;;;;39.75;28.65;;;;;;;11.21;100.00;101950.06;143725;653;46008;-73
2023/12/31 05:20:01;;;;;;;37.95;26.70;;;;;;;11.16;100.00;101947.06;143726;634;47004;-73
2023/12/31 05:22:27;;;;;;;40.90;28.30;;;;;;;11.16;100.00;101947.06;143722;661;47006;-73
2023/12/31 05:24:53;;;;;;;43.75;29.63;;;;;;;11.16;100.00;101952.44;143724;572;47006;-73
2023/12/31 05:27:20;;;;;;;44.80;28.62;;;;;;;11.10;100.00;101950.44;143727;580;46008;-73
2023/12/31 05:29:46;;;;;;;54.92;38.35;;;;;;;11.01;100.00;101952.28;143731;600;46008;-73
2023/12/31 05:32:12;;;;;;;51.50;37.35;;;;;;;11.03;100.00;101952.97;143729;619;46006;-72
2023/12/31 05:34:40;;;;;;;51.30;36.30;;;;;;;11.04;100.00;101967.22;143723;644;47006;-73
2023/12/31 05:37:06;;;;;;;50.70;36.53;;;;;;;11.05;100.00;101961.72;143728;577;47009;-72
2023/12/31 05:39:33;;;;;;;51.28;38.42;;;;;;;11.05;100.00;101958.16;143726;567;47006;-73
2023/12/31 05:41:59;;;;;;;59.92;39.60;;;;;;;11.07;100.00;101954.31;143724;652;47012;-73
2023/12/31 05:44:25;;;;;;;55.90;37.25;;;;;;;11.08;100.00;101955.13;143720;622;48931;-74
2023/12/31 05:46:52;;;;;;;53.03;36.65;;;;;;;11.10;100.00;101953.13;143725;653;47004;-73
2023/12/31 05:49:18;;;;;;;52.62;37.47;;;;;;;11.07;100.00;101948.94;143727;595;47004;-74
2023/12/31 05:51:44;;;;;;;48.83;35.92;;;;;;;11.05;100.00;101956.31;143726;610;46025;-73
2023/12/31 05:54:10;;;;;;;49.38;34.35;;;;;;;11.06;100.00;101954.47;143725;586;47010;-74
2023/12/31 05:56:37;;;;;;;50.90;35.60;;;;;;;11.09;100.00;101951.44;143726;577;46008;-74
2023/12/31 05:59:03;;;;;;;46.83;31.90;;;;;;;11.10;100.00;101949.59;143727;567;47006;-74
2023/12/31 06:01:29;;;;;;;39.90;30.77;;;;;;;11.09;100.00;101956.81;143725;581;46010;-73
2023/12/31 06:03:56;;;;;;;38.97;26.87;;;;;;;11.10;100.00;101955.81;143722;585;47006;-73
2023/12/31 06:06:22;;;;;;;45.22;27.95;;;;;;;11.16;100.00;101952.44;143723;635;47009;-73
2023/12/31 06:08:49;;;;;;;38.75;29.17;;;;;;;11.17;100.00;101942.50;143724;582;47004;-73
2023/12/31 06:11:15;;;;;;;37.42;27.90;;;;;;;11.17;100.00;101942.50;143725;602;46012;-73
2023/12/31 06:13:42;;;;;;;34.65;28.50;;;;;;;11.18;100.00;101944.19;143724;591;47007;-73
2023/12/31 06:16:08;;;;;;;34.35;27.15;;;;;;;11.20;100.00;101942.16;143722;576;47004;-73
2023/12/31 06:18:34;;;;;;;41.72;30.02;;;;;;;11.24;100.00;101943.50;143726;713;47004;-73
2023/12/31 06:21:01;;;;;;;37.67;30.12;;;;;;;11.27;100.00;101942.31;143727;585;46012;-73
2023/12/31 06:23:27;;;;;;;39.70;29.23;;;;;;;11.23;100.00;101945.34;143723;567;47006;-73
2023/12/31 06:25:53;;;;;;;47.00;35.22;;;;;;;11.13;100.00;101950.09;143723;568;47004;-73
2023/12/31 06:28:20;;;;;;;44.80;34.08;;;;;;;11.06;100.00;101949.09;143725;567;47006;-73
2023/12/31 06:30:46;;;;;;;50.65;36.15;;;;;;;11.06;100.00;101947.25;143724;620;47006;-74
2023/12/31 06:33:12;;;;;;;46.20;34.47;;;;;;;11.12;100.00;101948.41;143724;568;47006;-67
2023/12/31 06:35:39;;;;;;;45.97;34.50;;;;;;;11.12;100.00;101952.97;143725;592;47008;-66
2023/12/31 06:38:05;;;;;;;43.63;34.28;;;;;;;11.19;100.00;101946.72;143726;662;47004;-66
2023/12/31 06:40:32;;;;;;;46.78;35.22;;;;;;;11.26;100.00;101960.31;143723;612;47004;-66
2023/12/31 06:42:58;;;;;;;48.75;33.55;;;;;;;11.25;100.00;101963.16;143725;666;47006;-66
2023/12/31 06:45:24;;;;;;;49.13;36.40;;;;;;;11.21;100.00;101958.13;143725;640;46009;-66
2023/12/31 06:47:51;;;;;;;54.38;41.53;;;;;;;11.18;100.00;101963.88;143723;591;47004;-66
2023/12/31 06:50:17;;;;;;;51.33;39.90;;;;;;;11.19;100.00;101964.69;143725;597;47012;-66
2023/12/31 06:52:44;;;;;;;64.22;43.78;;;;;;;11.27;100.00;101962.00;143721;573;47006;-65
2023/12/31 06:55:11;;;;;;;70.82;50.78;;;;;;;11.25;100.00;101964.00;143723;572;47008;-65
2023/12/31 06:57:38;;;;;;;65.68;46.97;;;;;;;11.30;100.00;101964.31;143723;591;47004;-66
2023/12/31 07:00:07;;;;;;;69.50;48.25;;;;;;;11.38;100.00;101958.94;143724;581;46013;-65
2023/12/31 07:02:34;;;;;;;66.47;46.25;;;;;;;11.44;100.00;101953.88;143722;638;47006;-65
2023/12/31 07:05:00;;;;;;;56.08;43.97;;;;;;;11.49;100.00;101957.72;143724;576;46008;-67
2023/12/31 07:07:27;;;;;;;60.65;44.58;;;;;;;11.51;100.00;101966.44;143724;585;47007;-66
2023/12/31 07:09:53;;;;;;;58.00;45.75;;;;;;;11.58;100.00;101973.81;143722;592;47012;-66
2023/12/31 07:12:19;;;;;;;58.75;46.13;;;;;;;11.68;100.00;101969.06;143723;576;47006;-66
2023/12/31 07:14:46;;;;;;;59.78;45.47;;;;;;;11.72;100.00;101974.94;143724;592;46009;-66
2023/12/31 07:17:12;;;;;;;60.28;45.45;;;;;;;11.79;100.00;101987.53;143723;575;47006;-66
2023/12/31 07:19:39;;;;;;;65.87;49.53;;;;;;;11.90;100.00;101978.22;143722;607;46012;-65
2023/12/31 07:22:06;;;;;;;68.22;52.90;;;;;;;11.97;100.00;101987.28;143721;567;47004;-65
2023/12/31 07:24:35;;;;;;;68.20;53.80;;;;;;;12.00;100.00;101980.72;143724;596;46008;-65
2023/12/31 07:27:01;;;;;;;74.05;52.05;;;;;;;12.10;100.00;101985.87;143727;616;46008;-65
2023/12/31 07:29:27;;;;;;;63.90;51.00;;;;;;;12.15;100.00;101988.91;143723;616;47012;-66
2023/12/31 07:31:53;;;;;;;73.30;57.20;;;;;;;12.15;100.00;102001.50;143723;578;47006;-65
2023/12/31 07:34:20;;;;;;;74.93;60.20;;;;;;;12.21;100.00;102003.50;143722;569;47008;-65
2023/12/31 07:36:46;;;;;;;77.45;60.72;;;;;;;12.17;100.00;102000.34;143727;616;46008;-65
2023/12/31 07:39:12;;;;;;;76.90;60.28;;;;;;;12.22;100.00;102005.19;143722;576;47010;-64
2023/12/31 07:41:39;;;;;;;77.75;57.67;;;;;;;12.23;100.00;102009.56;143722;660;47006;-65
2023/12/31 07:44:05;;;;;;;73.03;56.30;;;;;;;12.34;100.00;102014.53;143721;599;47009;-63
2023/12/31 07:46:31;;;;;;;71.05;55.70;;;;;;;12.47;100.00;102008.53;143723;601;47004;-66
2023/12/31 07:48:57;;;;;;;72.40;54.80;;;;;;;12.51;100.00;102009.00;143722;647;47010;-65
2023/12/31 07:51:24;;;;;;;54.95;43.08;;;;;;;12.61;100.00;102009.63;143720;585;47006;-66
2023/12/31 07:53:51;;;;;;;54.60;42.50;;;;;;;12.73;100.00;102002.78;143723;685;47008;-66
2023/12/31 07:56:17;;;;;;;56.47;42.65;;;;;;;12.80;100.00;102004.72;143724;576;47004;-67
2023/12/31 07:58:44;;;;;;;54.65;43.47;;;;;;;12.83;100.00;102007.06;143715;591;46010;-67
2023/12/31 08:01:11;;;;;;;52.67;41.97;;;;;;;12.84;100.00;102009.59;143724;611;46004;-68
2023/12/31 08:03:37;;;;;;;47.55;38.85;;;;;;;12.86;100.00;102020.19;143723;649;46006;-67
2023/12/31 08:06:04;;;;;;;47.30;38.97;;;;;;;12.98;100.00;102007.94;143726;630;47004;-67
2023/12/31 08:08:30;;;;;;;46.45;36.30;;;;;;;13.13;100.00;102009.84;143718;610;46024;-67
2023/12/31 08:10:59;;;;;;;39.95;32.80;;;;;;;13.18;100.00;102010.13;143724;619;46008;-67
2023/12/31 08:13:25;;;;;;;33.60;25.92;;;;;;;12.96;100.00;102010.00;143721;581;46007;-67
2023/12/31 08:15:53;;;;;;;28.45;24.17;;;;;;;13.04;100.00;102022.59;143722;600;47002;-68
2023/12/31 08:18:20;;;;;;;28.23;23.52;;;;;;;13.13;100.00;102023.34;143723;633;47006;-66
2023/12/31 08:20:46;;;;;;;27.60;24.30;;;;;;;13.26;100.00;102017.28;143725;688;47002;-67
2023/12/31 08:23:13;;;;;;;32.17;24.95;;;;;;;13.42;100.00;102021.72;143725;650;47004;-66
2023/12/31 08:25:39;;;;;;;30.12;25.10;;;;;;;13.49;100.00;102019.97;143724;569;47004;-66
2023/12/31 08:28:06;;;;;;;29.35;25.88;;;;;;;13.61;100.00;102017.63;143717;567;47006;-68
2023/12/31 08:30:33;;;;;;;35.60;26.85;;;;;;;13.71;100.00;102012.78;143722;589;47008;-66
2023/12/31 08:33:00;;;;;;;36.90;26.42;;;;;;;13.75;100.00;102008.69;143721;642;47006;-67
2023/12/31 08:35:26;;;;;;;32.60;27.55;;;;;;;13.94;100.00;102011.84;143723;574;47002;-68
2023/12/31 08:37:52;;;;;;;30.35;25.73;;;;;;;14.10;100.00;102008.06;143722;590;47010;-67
2023/12/31 08:40:21;;;;;;;27.87;22.45;;;;;;;14.18;100.00;102007.09;143722;588;47004;-66
2023/12/31 08:42:48;;;;;;;26.65;22.92;;;;;;;14.38;100.00;102000.03;143723;588;47919;-66
2023/12/31 08:45:14;;;;;;;31.27;25.37;;;;;;;14.49;100.00;101997.84;143723;627;47002;-66
2023/12/31 08:47:41;;;;;;;31.17;26.33;;;;;;;14.63;100.00;101996.97;143724;594;46008;-66
2023/12/31 08:50:09;;;;;;;31.10;27.75;;;;;;;14.78;100.00;102002.31;143721;590;47004;-66
2023/12/31 08:52:38;;;;;;;34.03;27.87;;;;;;;14.75;100.00;102008.09;143716;573;47993;-67
2023/12/31 08:55:06;;;;;;;34.47;27.52;;;;;;;14.79;100.00;102013.97;143724;642;47002;-67
2023/12/31 08:57:33;;;;;;;33.08;27.95;;;;;;;14.85;100.00;102010.47;143721;591;47009;-67
2023/12/31 08:59:59;;;;;;;35.67;27.23;;;;;;;14.90;100.00;102005.31;143722;590;47004;-67
2023/12/31 09:02:26;;;;;;;36.53;29.12;;;;;;;14.93;100.00;102014.91;143723;611;47006;-68
2023/12/31 09:04:52;;;;;;;35.40;28.38;;;;;;;15.06;100.00;102015.03;143728;581;46003;-67
2023/12/31 09:07:18;;;;;;;33.55;28.58;;;;;;;15.05;100.00;102013.34;143724;586;46011;-67
2023/12/31 09:09:44;;;;;;;37.90;31.27;;;;;;;15.16;100.00;102003.88;143725;603;47008;-68
2023/12/31 09:12:11;;;;;;;38.20;31.10;;;;;;;15.84;100.00;102003.19;143724;574;46919;-67
2023/12/31 09:14:37;;;;;;;39.45;31.52;;;;;;;16.71;100.00;101996.28;143723;582;47004;-67
2023/12/31 09:17:04;;;;;;;42.67;30.73;;;;;;;17.18;100.00;101991.72;143723;590;46010;-66
2023/12/31 09:19:30;;;;;;;41.67;32.25;;;;;;;17.50;100.00;101991.84;143723;629;46008;-66
2023/12/31 09:21:56;;;;;;;43.10;31.92;;;;;;;17.38;100.00;101986.22;143721;623;47006;-68
2023/12/31 09:24:23;;;;;;;42.50;34.10;;;;;;;16.97;100.00;101974.62;143723;582;47006;-68
2023/12/31 09:26:49;;;;;;;43.97;36.05;;;;;;;16.68;100.00;101981.28;143720;581;47010;-66
2023/12/31 09:29:17;;;;;;;44.15;35.83;;;;;;;16.50;100.00;101982.72;143723;581;47009;-66
2023/12/31 09:31:43;;;;;;;41.03;35.97;;;;;;;16.34;100.00;101978.53;143719;613;47002;-68
2023/12/31 09:34:10;;;;;;;38.13;31.35;;;;;;;16.43;100.00;101978.34;143724;599;47002;-64
2023/12/31 09:36:36;;;;;;;33.30;28.55;;;;;;;16.59;100.00;101977.94;143722;592;47008;-66
2023/12/31 09:39:03;;;;;;;31.35;25.40;;;;;;;16.81;100.00;101975.84;143724;603;47002;-67
2023/12/31 09:41:31;;;;;;;29.63;23.45;;;;;;;17.15;100.00;101956.84;143724;574;46006;-67
2023/12/31 09:43:59;;;;;;;30.30;23.05;;;;;;;17.85;100.00;101944.44;143723;590;48000;-68
2023/12/31 09:46:31;;;;;;;26.85;22.35;;;;;;;18.45;100.00;101937.81;143722;588;47010;-67
2023/12/31 09:48:58;;;;;;;25.40;21.77;;;;;;;18.81;100.00;101932.69;143724;589;47004;-66
2023/12/31 09:51:25;;;;;;;35.45;22.80;;;;;;;19.12;98.50;101928.22;143724;602;46006;-67
2023/12/31 09:53:53;;;;;;;27.02;23.48;;;;;;;19.27;97.71;101925.13;143721;575;48011;-66
2023/12/31 09:56:23;;;;;;;26.90;23.08;;;;;;;19.39;95.61;101921.41;143719;583;50008;-66
2023/12/31 09:58:51;;;;;;;36.47;23.73;;;;;;;19.53;93.78;101921.22;143723;630;47004;-67
2023/12/31 10:01:18;;;;;;;26.77;23.62;;;;;;;19.45;95.74;101911.47;143723;618;47006;-66
2023/12/31 10:03:46;;;;;;;27.58;24.63;;;;;;;19.57;95.27;101914.25;143723;606;47003;-65
2023/12/31 10:06:14;;;;;;;29.95;23.40;;;;;;;19.63;94.01;101910.63;143722;569;47008;-67
2023/12/31 10:08:42;;;;;;;29.63;25.48;;;;;;;19.73;92.77;101917.41;143720;658;47004;-66
2023/12/31 10:11:10;;;;;;;28.33;25.25;;;;;;;19.81;92.84;101903.47;143723;730;46006;-67
2023/12/31 10:13:36;;;;;;;28.67;25.17;;;;;;;19.80;91.55;101902.62;143722;795;47005;-66
2023/12/31 10:16:13;;;;;;;29.05;23.70;;;;;;;19.75;90.42;101905.25;143722;726;47010;-65
2023/12/31 10:18:40;;;;;;;25.42;22.80;;;;;;;19.87;90.76;101888.06;143724;576;46011;-65
2023/12/31 10:21:08;;;;;;;26.37;23.10;;;;;;;20.03;89.17;101881.16;143722;573;47002;-66
2023/12/31 10:23:35;;;;;;;31.05;26.15;;;;;;;20.50;88.54;101874.91;143723;592;47002;-66
2023/12/31 10:26:01;;;;;;;26.45;22.62;;;;;;;21.98;83.07;101867.28;143722;605;47010;-66
2023/12/31 10:28:28;;;;;;;30.45;24.67;;;;;;;23.83;76.65;101872.78;143721;821;47004;-66
2023/12/31 10:30:54;;;;;;;24.67;21.90;;;;;;;25.13;68.55;101856.91;143723;567;47006;-65
2023/12/31 10:33:28;;;;;;;25.17;21.52;;;;;;;23.11;69.49;101859.06;143722;566;47002;-66
2023/12/31 10:36:07;;;;;;;23.87;21.00;;;;;;;21.24;75.18;101851.69;143721;637;47011;-67
2023/12/31 10:38:47;;;;;;;24.92;21.37;;;;;;;20.55;78.66;101853.19;143721;916;47010;-66
2023/12/31 10:41:17;;;;;;;28.35;23.00;;;;;;;20.37;80.43;101862.34;143714;758;49006;-66
2023/12/31 10:43:51;;;;;;;27.90;21.50;;;;;;;19.91;80.55;101857.41;143723;628;47002;-66
2023/12/31 10:46:19;;;;;;;27.77;24.10;;;;;;;19.56;83.76;101849.94;143725;727;46028;-68
2023/12/31 10:49:00;;;;;;;30.73;22.55;;;;;;;19.59;84.23;101851.38;143720;853;47004;-66
2023/12/31 10:51:27;;;;;;;33.10;24.27;;;;;;;19.35;85.77;101851.28;143718;581;48004;-65
2023/12/31 10:54:06;;;;;;;28.85;23.58;;;;;;;19.20;86.55;101844.34;143723;949;47002;-68
2023/12/31 10:56:32;;;;;;;32.30;25.55;;;;;;;19.02;87.43;101845.16;143723;602;47010;-68
2023/12/31 10:58:59;;;;;;;38.15;25.23;;;;;;;18.74;88.12;101841.06;143719;586;47004;-67
2023/12/31 11:01:26;;;;;;;27.40;22.52;;;;;;;18.51;89.19;101836.28;143720;696;47002;-66
2023/12/31 11:03:53;;;;;;;24.95;21.30;;;;;;;18.31;90.37;101837.31;143726;676;46006;-66
2023/12/31 11:06:24;;;;;;;21.20;18.70;;;;;;;18.07;90.49;101829.97;143723;625;47011;-66
2023/12/31 11:08:51;;;;;;;25.65;20.27;;;;;;;18.01;93.30;101824.34;143720;606;47004;-60
2023/12/31 11:11:18;;;;;;;23.73;20.67;;;;;;;18.13;93.03;101815.50;143725;689;46006;-65
2023/12/31 11:13:51;;;;;;;23.90;20.95;;;;;;;18.07;93.58;101817.22;143724;586;47002;-64
2023/12/31 11:17:02;;;;;;;29.42;21.23;;;;;;;17.97;94.67;101816.84;143724;641;47008;-66
2023/12/31 11:20:15;;;;;;;27.17;21.92;;;;;;;17.83;95.62;101813.37;143722;583;47004;-66
2023/12/31 11:23:19;;;;;;;29.98;23.33;;;;;;;17.76;96.07;101808.00;143723;610;46012;-65
2023/12/31 11:25:46;;;;;;;28.80;23.10;;;;;;;17.62;97.52;101803.72;143722;615;47002;-65
2023/12/31 11:28:12;;;;;;;27.48;21.42;;;;;;;17.62;97.29;101796.41;143722;587;47011;-66
2023/12/31 11:30:57;;;;;;;27.80;24.27;;;;;;;17.57;98.14;101791.62;143723;592;47004;-67
2023/12/31 11:33:31;;;;;;;27.50;24.05;;;;;;;17.41;98.58;101786.72;143724;649;46006;-66
2023/12/31 11:36:02;;;;;;;28.73;22.65;;;;;;;17.46;97.79;101783.38;143723;604;47002;-63
2023/12/31 11:38:58;;;;;;;29.45;24.23;;;;;;;17.51;97.20;101778.09;143721;577;47008;-65
2023/12/31 11:41:25;;;;;;;26.35;23.45;;;;;;;17.42;98.30;101774.78;143723;599;47004;-64
2023/12/31 11:43:52;;;;;;;29.30;23.77;;;;;;;17.52;99.05;101775.16;143722;581;47006;-65
2023/12/31 11:46:51;;;;;;;29.40;25.73;;;;;;;17.73;98.40;101765.81;143726;610;46006;-65
2023/12/31 11:49:17;;;;;;;30.42;24.33;;;;;;;17.88;97.97;101765.50;143723;590;47004;-65
2023/12/31 11:51:56;;;;;;;29.45;23.52;;;;;;;17.87;97.62;101762.97;143721;572;47929;-66
2023/12/31 11:54:24;;;;;;;30.98;26.20;;;;;;;17.61;97.76;101764.03;143720;616;47002;-64
2023/12/31 11:56:54;;;;;;;32.55;26.27;;;;;;;17.22;99.85;101764.06;143725;583;47002;-65
2023/12/31 11:59:20;;;;;;;27.48;22.70;;;;;;;17.03;100.00;101750.38;143724;591;46012;-65
2023/12/31 12:01:48;;;;;;;30.10;25.02;;;;;;;16.96;100.00;101761.28;143722;585;47006;-65
2023/12/31 12:04:14;;;;;;;28.40;22.73;;;;;;;16.94;100.00;101755.19;143724;590;46008;-64
2023/12/31 12:06:40;;;;;;;31.90;23.92;;;;;;;16.94;100.00;101755.19;143724;567;47004;-65
2023/12/31 12:09:07;;;;;;;30.77;24.20;;;;;;;16.86;100.00;101754.59;143718;625;47010;-65
2023/12/31 12:11:33;;;;;;;31.90;24.25;;;;;;;16.77;100.00;101754.81;143722;627;47006;-66
2023/12/31 12:14:04;;;;;;;28.67;22.42;;;;;;;16.81;100.00;101760.69;143723;577;47008;-66
2023/12/31 12:16:30;;;;;;;26.37;21.17;;;;;;;16.59;100.00;101747.41;143725;594;47006;-66
2023/12/31 12:19:01;;;;;;;29.60;23.77;;;;;;;16.55;100.00;101754.28;143722;580;47012;-64
2023/12/31 12:21:28;;;;;;;33.55;25.65;;;;;;;16.43;100.00;101740.53;143719;601;47934;-64
2023/12/31 12:23:54;;;;;;;29.25;23.90;;;;;;;16.47;100.00;101746.41;143721;600;47008;-65
2023/12/31 12:26:22;;;;;;;25.17;22.05;;;;;;;16.42;100.00;101752.44;143722;650;47004;-66
2023/12/31 12:28:55;;;;;;;31.50;23.23;;;;;;;16.33;100.00;101751.00;143724;578;46012;-64
2023/12/31 12:31:22;;;;;;;33.00;24.95;;;;;;;16.32;100.00;101749.34;143721;628;47006;-65
2023/12/31 12:33:56;;;;;;;29.65;24.08;;;;;;;16.31;100.00;101753.94;143723;605;46009;-66
2023/12/31 12:36:23;;;;;;;29.30;24.58;;;;;;;16.28;100.00;101748.94;143725;574;47006;-65
2023/12/31 12:38:49;;;;;;;29.17;24.95;;;;;;;16.35;100.00;101740.78;143721;612;47012;-65
2023/12/31 12:41:20;;;;;;;31.12;25.25;;;;;;;16.40;100.00;101743.72;143722;595;47012;-66
2023/12/31 12:43:50;;;;;;;36.58;26.58;;;;;;;16.44;100.00;101744.09;143722;614;46008;-68
2023/12/31 12:46:17;;;;;;;35.03;26.23;;;;;;;16.46;100.00;101745.56;143724;635;47004;-67
2023/12/31 12:48:51;;;;;;;31.55;23.27;;;;;;;16.36;100.00;101748.69;143727;575;46012;-67
2023/12/31 12:51:18;;;;;;;30.62;24.05;;;;;;;16.20;100.00;101746.44;143724;607;46031;-67
2023/12/31 12:53:45;;;;;;;29.08;23.80;;;;;;;15.98;100.00;101737.72;143724;566;47008;-68
2023/12/31 12:56:12;;;;;;;29.80;24.27;;;;;;;16.02;100.00;101741.69;143724;570;47006;-68
2023/12/31 12:58:38;;;;;;;34.33;26.35;;;;;;;15.95;100.00;101738.97;143724;616;46012;-67
2023/12/31 13:01:04;;;;;;;32.35;26.15;;;;;;;15.95;100.00;101741.69;143721;594;47006;-67
2023/12/31 13:03:32;;;;;;;34.25;27.02;;;;;;;15.93;100.00;101745.63;143724;567;47008;-66
2023/12/31 13:05:58;;;;;;;34.42;27.62;;;;;;;15.94;100.00;101747.31;143725;654;47004;-66